sensor_id;sensor_type;location;lat;lon;timestamp;P1;durP1;ratioP1;P2;durP2;ratioP2
19705;SDS011;10003;52.506;4.700;2022-09-09T00:00:12;6.40;;;4.80;;
19705;SDS011;10003;52.506;4.700;2022-09-09T00:02:41;5.50;;;4.63;;
19705;SDS011;10003;52.506;4.700;2022-09-09T00:05:14;2.03;;;1.87;;
19705;SDS011;10003;52.506;4.700;2022-09-09T00:07:47;3.50;;;2.97;;
19705;SDS011;10003;52.506;4.700;2022-09-09T00:10:17;3.80;;;2.53;;
19705;SDS011;10003;52.506;4.700;2022-09-09T00:12:53;4.13;;;2.80;;
19705;SDS011;10003;52.506;4.700;2022-09-09T00:15:23;3.93;;;2.83;;
19705;SDS011;10003;52.506;4.700;2022-09-09T00:17:55;7.53;;;4.43;;
19705;SDS011;10003;52.506;4.700;2022-09-09T00:20:26;6.43;;;3.67;;
19705;SDS011;10003;52.506;4.700;2022-09-09T00:22:57;3.27;;;2.97;;
19705;SDS011;10003;52.506;4.700;2022-09-09T00:25:28;8.37;;;5.63;;
19705;SDS011;10003;52.506;4.700;2022-09-09T00:27:59;8.40;;;4.50;;
19705;SDS011;10003;52.506;4.700;2022-09-09T00:30:29;9.37;;;5.60;;
19705;SDS011;10003;52.506;4.700;2022-09-09T00:33:01;6.13;;;4.57;;
19705;SDS011;10003;52.506;4.700;2022-09-09T00:35:31;6.97;;;5.23;;
19705;SDS011;10003;52.506;4.700;2022-09-09T00:38:01;6.37;;;5.77;;
19705;SDS011;10003;52.506;4.700;2022-09-09T00:40:31;7.57;;;6.17;;
19705;SDS011;10003;52.506;4.700;2022-09-09T00:43:08;7.00;;;5.13;;
19705;SDS011;10003;52.506;4.700;2022-09-09T00:48:27;10.13;;;6.10;;
19705;SDS011;10003;52.506;4.700;2022-09-09T00:51:03;6.30;;;5.00;;
19705;SDS011;10003;52.506;4.700;2022-09-09T00:53:34;8.43;;;6.57;;
19705;SDS011;10003;52.506;4.700;2022-09-09T00:56:10;5.97;;;4.63;;
19705;SDS011;10003;52.506;4.700;2022-09-09T00:58:42;4.33;;;3.67;;
19705;SDS011;10003;52.506;4.700;2022-09-09T01:01:11;5.93;;;3.93;;
19705;SDS011;10003;52.506;4.700;2022-09-09T01:03:41;6.93;;;6.23;;
19705;SDS011;10003;52.506;4.700;2022-09-09T01:06:13;7.83;;;6.30;;
19705;SDS011;10003;52.506;4.700;2022-09-09T01:08:49;8.67;;;6.80;;
19705;SDS011;10003;52.506;4.700;2022-09-09T01:11:21;9.90;;;7.13;;
19705;SDS011;10003;52.506;4.700;2022-09-09T01:13:55;7.93;;;5.73;;
19705;SDS011;10003;52.506;4.700;2022-09-09T01:16:26;10.13;;;7.47;;
19705;SDS011;10003;52.506;4.700;2022-09-09T01:18:55;8.93;;;5.97;;
19705;SDS011;10003;52.506;4.700;2022-09-09T01:21:27;10.97;;;7.23;;
19705;SDS011;10003;52.506;4.700;2022-09-09T01:24:04;13.23;;;8.43;;
19705;SDS011;10003;52.506;4.700;2022-09-09T01:26:38;10.00;;;7.70;;
19705;SDS011;10003;52.506;4.700;2022-09-09T01:29:08;14.60;;;9.47;;
19705;SDS011;10003;52.506;4.700;2022-09-09T01:31:37;10.90;;;8.63;;
19705;SDS011;10003;52.506;4.700;2022-09-09T01:34:11;10.00;;;8.97;;
19705;SDS011;10003;52.506;4.700;2022-09-09T01:36:40;14.33;;;10.13;;
19705;SDS011;10003;52.506;4.700;2022-09-09T01:39:10;6.23;;;4.27;;
19705;SDS011;10003;52.506;4.700;2022-09-09T01:41:41;12.60;;;8.97;;
19705;SDS011;10003;52.506;4.700;2022-09-09T01:44:09;13.20;;;10.93;;
19705;SDS011;10003;52.506;4.700;2022-09-09T01:46:37;17.27;;;12.90;;
19705;SDS011;10003;52.506;4.700;2022-09-09T01:49:06;15.23;;;9.00;;
19705;SDS011;10003;52.506;4.700;2022-09-09T01:51:36;17.10;;;9.97;;
19705;SDS011;10003;52.506;4.700;2022-09-09T01:54:05;18.70;;;11.33;;
19705;SDS011;10003;52.506;4.700;2022-09-09T01:56:36;13.07;;;10.30;;
19705;SDS011;10003;52.506;4.700;2022-09-09T01:59:13;11.77;;;8.60;;
19705;SDS011;10003;52.506;4.700;2022-09-09T02:01:48;13.60;;;12.10;;
19705;SDS011;10003;52.506;4.700;2022-09-09T02:04:27;9.40;;;7.93;;
19705;SDS011;10003;52.506;4.700;2022-09-09T02:06:59;20.77;;;13.30;;
19705;SDS011;10003;52.506;4.700;2022-09-09T02:09:29;24.27;;;16.07;;
19705;SDS011;10003;52.506;4.700;2022-09-09T02:11:59;15.37;;;11.00;;
19705;SDS011;10003;52.506;4.700;2022-09-09T02:14:31;20.30;;;14.87;;
19705;SDS011;10003;52.506;4.700;2022-09-09T02:17:03;22.57;;;14.37;;
19705;SDS011;10003;52.506;4.700;2022-09-09T02:19:34;18.80;;;11.87;;
19705;SDS011;10003;52.506;4.700;2022-09-09T02:22:04;10.80;;;8.93;;
19705;SDS011;10003;52.506;4.700;2022-09-09T02:24:34;24.33;;;15.73;;
19705;SDS011;10003;52.506;4.700;2022-09-09T02:27:03;19.57;;;13.57;;
19705;SDS011;10003;52.506;4.700;2022-09-09T02:29:37;16.57;;;11.00;;
19705;SDS011;10003;52.506;4.700;2022-09-09T02:32:08;9.00;;;6.40;;
19705;SDS011;10003;52.506;4.700;2022-09-09T02:34:39;23.97;;;18.73;;
19705;SDS011;10003;52.506;4.700;2022-09-09T02:37:08;24.90;;;17.83;;
19705;SDS011;10003;52.506;4.700;2022-09-09T02:39:37;7.27;;;5.13;;
19705;SDS011;10003;52.506;4.700;2022-09-09T02:42:05;25.87;;;17.80;;
19705;SDS011;10003;52.506;4.700;2022-09-09T02:44:34;22.10;;;18.37;;
19705;SDS011;10003;52.506;4.700;2022-09-09T02:49:54;21.60;;;14.70;;
19705;SDS011;10003;52.506;4.700;2022-09-09T02:52:26;23.13;;;15.90;;
19705;SDS011;10003;52.506;4.700;2022-09-09T02:54:56;2.30;;;2.20;;
19705;SDS011;10003;52.506;4.700;2022-09-09T02:57:26;6.57;;;5.93;;
19705;SDS011;10003;52.506;4.700;2022-09-09T02:59:56;0.50;;;0.50;;
19705;SDS011;10003;52.506;4.700;2022-09-09T03:02:25;7.50;;;5.23;;
19705;SDS011;10003;52.506;4.700;2022-09-09T03:04:55;6.60;;;4.43;;
19705;SDS011;10003;52.506;4.700;2022-09-09T03:07:24;7.40;;;4.60;;
19705;SDS011;10003;52.506;4.700;2022-09-09T03:09:53;13.73;;;9.73;;
19705;SDS011;10003;52.506;4.700;2022-09-09T03:12:22;7.00;;;4.43;;
19705;SDS011;10003;52.506;4.700;2022-09-09T03:14:50;3.80;;;3.40;;
19705;SDS011;10003;52.506;4.700;2022-09-09T03:17:21;5.60;;;4.30;;
19705;SDS011;10003;52.506;4.700;2022-09-09T03:19:50;10.80;;;6.97;;
19705;SDS011;10003;52.506;4.700;2022-09-09T03:22:22;3.37;;;3.07;;
19705;SDS011;10003;52.506;4.700;2022-09-09T03:24:51;0.80;;;0.80;;
19705;SDS011;10003;52.506;4.700;2022-09-09T03:27:19;4.87;;;3.73;;
19705;SDS011;10003;52.506;4.700;2022-09-09T03:29:48;13.87;;;11.43;;
19705;SDS011;10003;52.506;4.700;2022-09-09T03:32:18;13.70;;;10.23;;
19705;SDS011;10003;52.506;4.700;2022-09-09T03:34:48;11.07;;;9.90;;
19705;SDS011;10003;52.506;4.700;2022-09-09T03:37:16;13.37;;;9.30;;
19705;SDS011;10003;52.506;4.700;2022-09-09T03:39:46;9.70;;;8.10;;
19705;SDS011;10003;52.506;4.700;2022-09-09T03:42:15;7.17;;;6.47;;
19705;SDS011;10003;52.506;4.700;2022-09-09T03:44:45;3.07;;;1.50;;
19705;SDS011;10003;52.506;4.700;2022-09-09T03:47:17;12.43;;;8.37;;
19705;SDS011;10003;52.506;4.700;2022-09-09T03:49:47;2.17;;;2.07;;
19705;SDS011;10003;52.506;4.700;2022-09-09T03:52:16;1.30;;;1.27;;
19705;SDS011;10003;52.506;4.700;2022-09-09T03:54:50;12.80;;;9.50;;
19705;SDS011;10003;52.506;4.700;2022-09-09T03:57:23;6.23;;;5.23;;
19705;SDS011;10003;52.506;4.700;2022-09-09T03:59:51;11.43;;;7.73;;
19705;SDS011;10003;52.506;4.700;2022-09-09T04:02:20;0.83;;;0.83;;
19705;SDS011;10003;52.506;4.700;2022-09-09T04:04:48;9.53;;;6.43;;
19705;SDS011;10003;52.506;4.700;2022-09-09T04:07:17;1.13;;;1.10;;
19705;SDS011;10003;52.506;4.700;2022-09-09T04:09:45;3.00;;;2.80;;
19705;SDS011;10003;52.506;4.700;2022-09-09T04:12:15;6.40;;;3.70;;
19705;SDS011;10003;52.506;4.700;2022-09-09T04:14:44;5.60;;;3.40;;
19705;SDS011;10003;52.506;4.700;2022-09-09T04:17:12;1.23;;;1.13;;
19705;SDS011;10003;52.506;4.700;2022-09-09T04:19:40;7.93;;;6.00;;
19705;SDS011;10003;52.506;4.700;2022-09-09T04:22:09;1.33;;;1.23;;
19705;SDS011;10003;52.506;4.700;2022-09-09T04:24:37;1.37;;;1.27;;
19705;SDS011;10003;52.506;4.700;2022-09-09T04:27:10;9.83;;;7.80;;
19705;SDS011;10003;52.506;4.700;2022-09-09T04:29:40;14.23;;;7.20;;
19705;SDS011;10003;52.506;4.700;2022-09-09T04:32:08;6.90;;;5.40;;
19705;SDS011;10003;52.506;4.700;2022-09-09T04:34:37;16.43;;;11.07;;
19705;SDS011;10003;52.506;4.700;2022-09-09T04:37:05;12.47;;;10.87;;
19705;SDS011;10003;52.506;4.700;2022-09-09T04:39:34;13.07;;;9.30;;
19705;SDS011;10003;52.506;4.700;2022-09-09T04:42:03;10.03;;;7.97;;
19705;SDS011;10003;52.506;4.700;2022-09-09T04:44:31;19.37;;;10.40;;
19705;SDS011;10003;52.506;4.700;2022-09-09T04:47:01;15.47;;;11.60;;
19705;SDS011;10003;52.506;4.700;2022-09-09T04:49:29;12.53;;;10.00;;
19705;SDS011;10003;52.506;4.700;2022-09-09T04:51:58;14.60;;;13.10;;
19705;SDS011;10003;52.506;4.700;2022-09-09T04:54:27;15.03;;;11.80;;
19705;SDS011;10003;52.506;4.700;2022-09-09T04:56:55;10.53;;;7.97;;
19705;SDS011;10003;52.506;4.700;2022-09-09T04:59:24;7.00;;;6.30;;
19705;SDS011;10003;52.506;4.700;2022-09-09T05:01:52;1.87;;;1.73;;
19705;SDS011;10003;52.506;4.700;2022-09-09T05:04:23;10.40;;;7.67;;
19705;SDS011;10003;52.506;4.700;2022-09-09T05:06:51;15.43;;;12.10;;
19705;SDS011;10003;52.506;4.700;2022-09-09T05:09:20;9.47;;;5.33;;
19705;SDS011;10003;52.506;4.700;2022-09-09T05:11:48;11.53;;;9.40;;
19705;SDS011;10003;52.506;4.700;2022-09-09T05:14:18;14.73;;;10.53;;
19705;SDS011;10003;52.506;4.700;2022-09-09T05:16:47;3.10;;;2.80;;
19705;SDS011;10003;52.506;4.700;2022-09-09T05:19:16;6.60;;;5.17;;
19705;SDS011;10003;52.506;4.700;2022-09-09T05:21:47;2.97;;;2.77;;
19705;SDS011;10003;52.506;4.700;2022-09-09T05:24:16;8.57;;;6.67;;
19705;SDS011;10003;52.506;4.700;2022-09-09T05:26:44;3.40;;;3.10;;
19705;SDS011;10003;52.506;4.700;2022-09-09T05:29:13;2.03;;;1.63;;
19705;SDS011;10003;52.506;4.700;2022-09-09T05:31:43;3.17;;;2.87;;
19705;SDS011;10003;52.506;4.700;2022-09-09T05:34:12;0.80;;;0.80;;
19705;SDS011;10003;52.506;4.700;2022-09-09T05:36:40;4.73;;;3.77;;
19705;SDS011;10003;52.506;4.700;2022-09-09T05:39:10;4.53;;;2.37;;
19705;SDS011;10003;52.506;4.700;2022-09-09T05:41:39;2.00;;;1.43;;
19705;SDS011;10003;52.506;4.700;2022-09-09T05:44:07;1.83;;;1.70;;
19705;SDS011;10003;52.506;4.700;2022-09-09T05:46:35;6.50;;;3.80;;
19705;SDS011;10003;52.506;4.700;2022-09-09T05:49:04;8.00;;;4.40;;
19705;SDS011;10003;52.506;4.700;2022-09-09T05:51:32;5.57;;;4.63;;
19705;SDS011;10003;52.506;4.700;2022-09-09T05:54:01;6.37;;;3.13;;
19705;SDS011;10003;52.506;4.700;2022-09-09T05:56:30;4.60;;;3.53;;
19705;SDS011;10003;52.506;4.700;2022-09-09T05:58:59;11.63;;;4.30;;
19705;SDS011;10003;52.506;4.700;2022-09-09T06:01:30;5.30;;;4.53;;
19705;SDS011;10003;52.506;4.700;2022-09-09T06:03:59;7.93;;;4.67;;
19705;SDS011;10003;52.506;4.700;2022-09-09T06:06:30;6.87;;;5.20;;
19705;SDS011;10003;52.506;4.700;2022-09-09T06:09:03;9.13;;;5.23;;
19705;SDS011;10003;52.506;4.700;2022-09-09T06:11:37;8.90;;;4.17;;
19705;SDS011;10003;52.506;4.700;2022-09-09T06:14:06;1.50;;;1.40;;
19705;SDS011;10003;52.506;4.700;2022-09-09T06:16:35;10.17;;;5.23;;
19705;SDS011;10003;52.506;4.700;2022-09-09T06:19:04;8.13;;;3.10;;
19705;SDS011;10003;52.506;4.700;2022-09-09T06:21:33;5.93;;;3.70;;
19705;SDS011;10003;52.506;4.700;2022-09-09T06:24:03;7.90;;;4.70;;
19705;SDS011;10003;52.506;4.700;2022-09-09T06:26:32;6.60;;;5.97;;
19705;SDS011;10003;52.506;4.700;2022-09-09T06:29:02;4.53;;;3.20;;
19705;SDS011;10003;52.506;4.700;2022-09-09T06:31:31;5.30;;;3.70;;
19705;SDS011;10003;52.506;4.700;2022-09-09T06:34:01;9.10;;;5.37;;
19705;SDS011;10003;52.506;4.700;2022-09-09T06:36:30;7.40;;;5.10;;
19705;SDS011;10003;52.506;4.700;2022-09-09T06:38:59;7.47;;;5.80;;
19705;SDS011;10003;52.506;4.700;2022-09-09T06:41:28;7.67;;;4.93;;
19705;SDS011;10003;52.506;4.700;2022-09-09T06:43:56;10.80;;;5.60;;
19705;SDS011;10003;52.506;4.700;2022-09-09T06:46:27;6.57;;;5.10;;
19705;SDS011;10003;52.506;4.700;2022-09-09T06:48:59;6.17;;;4.27;;
19705;SDS011;10003;52.506;4.700;2022-09-09T06:51:29;10.03;;;5.37;;
19705;SDS011;10003;52.506;4.700;2022-09-09T06:53:58;7.00;;;4.93;;
19705;SDS011;10003;52.506;4.700;2022-09-09T06:56:29;6.03;;;3.93;;
19705;SDS011;10003;52.506;4.700;2022-09-09T06:58:58;9.87;;;6.37;;
19705;SDS011;10003;52.506;4.700;2022-09-09T07:01:29;6.87;;;4.20;;
19705;SDS011;10003;52.506;4.700;2022-09-09T07:03:58;11.50;;;7.50;;
19705;SDS011;10003;52.506;4.700;2022-09-09T07:06:27;7.50;;;4.80;;
19705;SDS011;10003;52.506;4.700;2022-09-09T07:08:56;7.20;;;5.67;;
19705;SDS011;10003;52.506;4.700;2022-09-09T07:11:25;10.60;;;7.77;;
19705;SDS011;10003;52.506;4.700;2022-09-09T07:13:55;8.17;;;7.37;;
19705;SDS011;10003;52.506;4.700;2022-09-09T07:16:25;12.50;;;7.13;;
19705;SDS011;10003;52.506;4.700;2022-09-09T07:18:56;11.13;;;5.83;;
19705;SDS011;10003;52.506;4.700;2022-09-09T07:21:25;7.63;;;6.70;;
19705;SDS011;10003;52.506;4.700;2022-09-09T07:23:54;12.17;;;5.40;;
19705;SDS011;10003;52.506;4.700;2022-09-09T07:26:23;14.57;;;7.40;;
19705;SDS011;10003;52.506;4.700;2022-09-09T07:28:52;11.13;;;5.83;;
19705;SDS011;10003;52.506;4.700;2022-09-09T07:31:22;10.43;;;7.60;;
19705;SDS011;10003;52.506;4.700;2022-09-09T07:33:52;8.67;;;6.80;;
19705;SDS011;10003;52.506;4.700;2022-09-09T07:36:23;8.97;;;5.80;;
19705;SDS011;10003;52.506;4.700;2022-09-09T07:38:59;9.03;;;7.43;;
19705;SDS011;10003;52.506;4.700;2022-09-09T07:41:28;8.50;;;6.57;;
19705;SDS011;10003;52.506;4.700;2022-09-09T07:43:58;14.50;;;6.10;;
19705;SDS011;10003;52.506;4.700;2022-09-09T07:46:26;9.53;;;7.47;;
19705;SDS011;10003;52.506;4.700;2022-09-09T07:48:56;11.63;;;7.20;;
19705;SDS011;10003;52.506;4.700;2022-09-09T07:51:27;10.20;;;6.50;;
19705;SDS011;10003;52.506;4.700;2022-09-09T07:53:56;12.00;;;8.00;;
19705;SDS011;10003;52.506;4.700;2022-09-09T07:56:26;6.87;;;5.37;;
19705;SDS011;10003;52.506;4.700;2022-09-09T07:58:55;10.73;;;7.57;;
19705;SDS011;10003;52.506;4.700;2022-09-09T08:01:25;9.97;;;7.77;;
19705;SDS011;10003;52.506;4.700;2022-09-09T08:03:54;11.00;;;6.43;;
19705;SDS011;10003;52.506;4.700;2022-09-09T08:06:26;12.17;;;7.10;;
19705;SDS011;10003;52.506;4.700;2022-09-09T08:08:55;10.30;;;6.00;;
19705;SDS011;10003;52.506;4.700;2022-09-09T08:11:24;7.73;;;6.77;;
19705;SDS011;10003;52.506;4.700;2022-09-09T08:13:55;10.00;;;6.80;;
19705;SDS011;10003;52.506;4.700;2022-09-09T08:16:28;8.27;;;6.87;;
19705;SDS011;10003;52.506;4.700;2022-09-09T08:18:57;13.80;;;7.57;;
19705;SDS011;10003;52.506;4.700;2022-09-09T08:21:28;11.50;;;8.03;;
19705;SDS011;10003;52.506;4.700;2022-09-09T08:23:58;10.67;;;7.37;;
19705;SDS011;10003;52.506;4.700;2022-09-09T08:26:27;9.83;;;6.30;;
19705;SDS011;10003;52.506;4.700;2022-09-09T08:28:59;10.63;;;9.10;;
19705;SDS011;10003;52.506;4.700;2022-09-09T08:31:28;10.80;;;7.53;;
19705;SDS011;10003;52.506;4.700;2022-09-09T08:33:58;8.60;;;6.33;;
19705;SDS011;10003;52.506;4.700;2022-09-09T08:36:28;11.90;;;6.63;;
19705;SDS011;10003;52.506;4.700;2022-09-09T08:38:59;9.93;;;6.00;;
19705;SDS011;10003;52.506;4.700;2022-09-09T08:44:13;9.67;;;5.67;;
19705;SDS011;10003;52.506;4.700;2022-09-09T08:46:45;12.00;;;7.50;;
19705;SDS011;10003;52.506;4.700;2022-09-09T08:49:19;11.03;;;4.67;;
19705;SDS011;10003;52.506;4.700;2022-09-09T08:51:55;9.67;;;6.80;;
19705;SDS011;10003;52.506;4.700;2022-09-09T08:54:24;7.27;;;5.63;;
19705;SDS011;10003;52.506;4.700;2022-09-09T08:57:18;8.87;;;5.03;;
19705;SDS011;10003;52.506;4.700;2022-09-09T08:59:48;11.27;;;6.40;;
19705;SDS011;10003;52.506;4.700;2022-09-09T09:02:18;9.60;;;7.57;;
19705;SDS011;10003;52.506;4.700;2022-09-09T09:07:42;9.87;;;6.77;;
19705;SDS011;10003;52.506;4.700;2022-09-09T09:10:16;7.03;;;5.43;;
19705;SDS011;10003;52.506;4.700;2022-09-09T09:13:07;9.23;;;5.90;;
19705;SDS011;10003;52.506;4.700;2022-09-09T09:15:40;6.73;;;4.73;;
19705;SDS011;10003;52.506;4.700;2022-09-09T09:18:10;8.30;;;5.97;;
19705;SDS011;10003;52.506;4.700;2022-09-09T09:20:42;8.03;;;5.73;;
19705;SDS011;10003;52.506;4.700;2022-09-09T09:23:18;8.20;;;5.30;;
19705;SDS011;10003;52.506;4.700;2022-09-09T09:25:50;13.73;;;6.50;;
19705;SDS011;10003;52.506;4.700;2022-09-09T09:28:21;7.37;;;6.60;;
19705;SDS011;10003;52.506;4.700;2022-09-09T09:30:52;11.97;;;6.80;;
19705;SDS011;10003;52.506;4.700;2022-09-09T09:33:25;7.03;;;5.93;;
19705;SDS011;10003;52.506;4.700;2022-09-09T09:35:54;9.13;;;5.90;;
19705;SDS011;10003;52.506;4.700;2022-09-09T09:38:25;9.07;;;7.03;;
19705;SDS011;10003;52.506;4.700;2022-09-09T09:41:14;9.43;;;6.60;;
19705;SDS011;10003;52.506;4.700;2022-09-09T09:43:52;8.80;;;5.97;;
19705;SDS011;10003;52.506;4.700;2022-09-09T09:46:22;9.23;;;5.80;;
19705;SDS011;10003;52.506;4.700;2022-09-09T09:48:57;8.33;;;4.97;;
19705;SDS011;10003;52.506;4.700;2022-09-09T09:51:26;8.30;;;4.40;;
19705;SDS011;10003;52.506;4.700;2022-09-09T09:54:03;12.07;;;6.37;;
19705;SDS011;10003;52.506;4.700;2022-09-09T09:56:35;8.50;;;5.60;;
19705;SDS011;10003;52.506;4.700;2022-09-09T09:59:04;8.73;;;6.00;;
19705;SDS011;10003;52.506;4.700;2022-09-09T10:01:48;12.10;;;5.40;;
19705;SDS011;10003;52.506;4.700;2022-09-09T10:04:18;10.60;;;5.77;;
19705;SDS011;10003;52.506;4.700;2022-09-09T10:06:52;7.90;;;5.60;;
19705;SDS011;10003;52.506;4.700;2022-09-09T10:09:23;11.53;;;5.83;;
19705;SDS011;10003;52.506;4.700;2022-09-09T10:11:54;8.00;;;4.97;;
19705;SDS011;10003;52.506;4.700;2022-09-09T10:14:25;6.20;;;3.50;;
19705;SDS011;10003;52.506;4.700;2022-09-09T10:16:59;10.37;;;5.83;;
19705;SDS011;10003;52.506;4.700;2022-09-09T10:19:30;11.43;;;5.57;;
19705;SDS011;10003;52.506;4.700;2022-09-09T10:22:02;3.83;;;2.97;;
19705;SDS011;10003;52.506;4.700;2022-09-09T10:24:39;7.10;;;5.47;;
19705;SDS011;10003;52.506;4.700;2022-09-09T10:27:17;7.03;;;4.37;;
19705;SDS011;10003;52.506;4.700;2022-09-09T10:30:03;4.43;;;3.93;;
19705;SDS011;10003;52.506;4.700;2022-09-09T10:32:40;6.53;;;4.80;;
19705;SDS011;10003;52.506;4.700;2022-09-09T10:35:10;8.30;;;5.53;;
19705;SDS011;10003;52.506;4.700;2022-09-09T10:37:41;8.37;;;5.93;;
19705;SDS011;10003;52.506;4.700;2022-09-09T10:40:23;5.57;;;4.97;;
19705;SDS011;10003;52.506;4.700;2022-09-09T10:42:59;8.87;;;5.87;;
19705;SDS011;10003;52.506;4.700;2022-09-09T10:45:30;9.57;;;5.50;;
19705;SDS011;10003;52.506;4.700;2022-09-09T10:50:52;7.27;;;4.60;;
19705;SDS011;10003;52.506;4.700;2022-09-09T10:53:36;5.40;;;4.80;;
19705;SDS011;10003;52.506;4.700;2022-09-09T10:56:07;6.87;;;3.83;;
19705;SDS011;10003;52.506;4.700;2022-09-09T10:58:38;7.83;;;4.70;;
19705;SDS011;10003;52.506;4.700;2022-09-09T11:01:10;6.90;;;4.20;;
19705;SDS011;10003;52.506;4.700;2022-09-09T11:03:42;4.63;;;3.13;;
19705;SDS011;10003;52.506;4.700;2022-09-09T11:06:12;4.70;;;3.40;;
19705;SDS011;10003;52.506;4.700;2022-09-09T11:08:42;5.47;;;3.60;;
19705;SDS011;10003;52.506;4.700;2022-09-09T11:11:12;6.43;;;4.50;;
19705;SDS011;10003;52.506;4.700;2022-09-09T11:13:45;7.57;;;4.57;;
19705;SDS011;10003;52.506;4.700;2022-09-09T11:16:20;4.50;;;3.07;;
19705;SDS011;10003;52.506;4.700;2022-09-09T11:18:52;5.90;;;4.00;;
19705;SDS011;10003;52.506;4.700;2022-09-09T11:21:25;5.40;;;3.63;;
19705;SDS011;10003;52.506;4.700;2022-09-09T11:23:56;4.90;;;3.27;;
19705;SDS011;10003;52.506;4.700;2022-09-09T11:26:30;6.97;;;3.53;;
19705;SDS011;10003;52.506;4.700;2022-09-09T11:29:04;7.57;;;3.27;;
19705;SDS011;10003;52.506;4.700;2022-09-09T11:31:41;5.20;;;3.83;;
19705;SDS011;10003;52.506;4.700;2022-09-09T11:34:19;7.57;;;5.47;;
19705;SDS011;10003;52.506;4.700;2022-09-09T11:37:05;7.37;;;4.40;;
19705;SDS011;10003;52.506;4.700;2022-09-09T11:42:23;6.87;;;5.17;;
19705;SDS011;10003;52.506;4.700;2022-09-09T11:44:52;7.33;;;4.00;;
19705;SDS011;10003;52.506;4.700;2022-09-09T11:47:23;9.30;;;5.50;;
19705;SDS011;10003;52.506;4.700;2022-09-09T11:50:06;8.13;;;4.30;;
19705;SDS011;10003;52.506;4.700;2022-09-09T11:52:36;5.00;;;3.57;;
19705;SDS011;10003;52.506;4.700;2022-09-09T11:55:08;7.53;;;4.67;;
19705;SDS011;10003;52.506;4.700;2022-09-09T11:57:58;3.60;;;3.13;;
19705;SDS011;10003;52.506;4.700;2022-09-09T12:00:29;6.43;;;4.43;;
19705;SDS011;10003;52.506;4.700;2022-09-09T12:02:59;7.27;;;4.40;;
19705;SDS011;10003;52.506;4.700;2022-09-09T12:05:35;4.30;;;3.23;;
19705;SDS011;10003;52.506;4.700;2022-09-09T12:08:05;4.83;;;2.67;;
19705;SDS011;10003;52.506;4.700;2022-09-09T12:10:35;5.20;;;4.20;;
19705;SDS011;10003;52.506;4.700;2022-09-09T12:15:55;3.73;;;1.63;;
19705;SDS011;10003;52.506;4.700;2022-09-09T12:18:24;4.63;;;3.20;;
19705;SDS011;10003;52.506;4.700;2022-09-09T12:20:54;3.17;;;1.97;;
19705;SDS011;10003;52.506;4.700;2022-09-09T12:23:29;4.67;;;2.90;;
19705;SDS011;10003;52.506;4.700;2022-09-09T12:26:07;4.50;;;4.10;;
19705;SDS011;10003;52.506;4.700;2022-09-09T12:28:47;4.00;;;3.03;;
19705;SDS011;10003;52.506;4.700;2022-09-09T12:31:21;4.60;;;3.60;;
19705;SDS011;10003;52.506;4.700;2022-09-09T12:33:52;5.57;;;3.43;;
19705;SDS011;10003;52.506;4.700;2022-09-09T12:36:24;7.30;;;3.93;;
19705;SDS011;10003;52.506;4.700;2022-09-09T12:38:52;3.57;;;2.87;;
19705;SDS011;10003;52.506;4.700;2022-09-09T12:41:24;3.10;;;2.77;;
19705;SDS011;10003;52.506;4.700;2022-09-09T12:44:03;3.63;;;3.30;;
19705;SDS011;10003;52.506;4.700;2022-09-09T12:46:35;6.03;;;2.50;;
19705;SDS011;10003;52.506;4.700;2022-09-09T12:49:04;4.87;;;3.30;;
19705;SDS011;10003;52.506;4.700;2022-09-09T12:51:34;5.07;;;3.50;;
19705;SDS011;10003;52.506;4.700;2022-09-09T12:54:12;4.07;;;2.43;;
19705;SDS011;10003;52.506;4.700;2022-09-09T12:56:44;3.53;;;2.80;;
19705;SDS011;10003;52.506;4.700;2022-09-09T12:59:21;8.63;;;2.90;;
19705;SDS011;10003;52.506;4.700;2022-09-09T13:05:09;4.33;;;3.70;;
19705;SDS011;10003;52.506;4.700;2022-09-09T13:07:43;2.13;;;1.83;;
19705;SDS011;10003;52.506;4.700;2022-09-09T13:10:12;5.93;;;4.40;;
19705;SDS011;10003;52.506;4.700;2022-09-09T13:13:13;3.27;;;2.97;;
19705;SDS011;10003;52.506;4.700;2022-09-09T13:16:54;5.77;;;5.07;;
19705;SDS011;10003;52.506;4.700;2022-09-09T13:19:27;6.53;;;4.77;;
19705;SDS011;10003;52.506;4.700;2022-09-09T13:21:59;6.27;;;4.97;;
19705;SDS011;10003;52.506;4.700;2022-09-09T13:24:29;4.77;;;3.87;;
19705;SDS011;10003;52.506;4.700;2022-09-09T13:27:05;5.40;;;3.60;;
19705;SDS011;10003;52.506;4.700;2022-09-09T13:33:28;4.30;;;3.90;;
19705;SDS011;10003;52.506;4.700;2022-09-09T13:36:27;6.70;;;4.70;;
19705;SDS011;10003;52.506;4.700;2022-09-09T13:43:12;4.10;;;3.70;;
19705;SDS011;10003;52.506;4.700;2022-09-09T13:52:01;5.23;;;4.50;;
19705;SDS011;10003;52.506;4.700;2022-09-09T14:02:41;6.93;;;4.40;;
19705;SDS011;10003;52.506;4.700;2022-09-09T14:05:10;3.90;;;3.07;;
19705;SDS011;10003;52.506;4.700;2022-09-09T14:14:03;4.93;;;3.63;;
19705;SDS011;10003;52.506;4.700;2022-09-09T14:16:31;3.87;;;3.47;;
19705;SDS011;10003;52.506;4.700;2022-09-09T14:22:23;4.00;;;3.00;;
19705;SDS011;10003;52.506;4.700;2022-09-09T14:24:55;3.03;;;2.67;;
19705;SDS011;10003;52.506;4.700;2022-09-09T14:27:35;3.00;;;2.03;;
19705;SDS011;10003;52.506;4.700;2022-09-09T14:34:13;4.37;;;2.90;;
19705;SDS011;10003;52.506;4.700;2022-09-09T14:36:45;3.57;;;2.83;;
19705;SDS011;10003;52.506;4.700;2022-09-09T14:39:33;4.27;;;3.87;;
19705;SDS011;10003;52.506;4.700;2022-09-09T14:42:16;4.70;;;3.57;;
19705;SDS011;10003;52.506;4.700;2022-09-09T14:45:20;4.27;;;3.87;;
19705;SDS011;10003;52.506;4.700;2022-09-09T14:55:29;4.00;;;3.60;;
19705;SDS011;10003;52.506;4.700;2022-09-09T14:59:48;3.63;;;2.37;;
19705;SDS011;10003;52.506;4.700;2022-09-09T15:01:41;4.97;;;4.03;;
19705;SDS011;10003;52.506;4.700;2022-09-09T15:04:18;4.40;;;4.00;;
19705;SDS011;10003;52.506;4.700;2022-09-09T15:11:02;6.37;;;5.00;;
19705;SDS011;10003;52.506;4.700;2022-09-09T15:13:32;7.27;;;4.40;;
19705;SDS011;10003;52.506;4.700;2022-09-09T15:16:05;6.80;;;3.60;;
19705;SDS011;10003;52.506;4.700;2022-09-09T15:18:34;1.60;;;1.50;;
19705;SDS011;10003;52.506;4.700;2022-09-09T15:21:09;4.30;;;2.83;;
19705;SDS011;10003;52.506;4.700;2022-09-09T15:23:38;3.90;;;2.73;;
19705;SDS011;10003;52.506;4.700;2022-09-09T15:26:09;5.43;;;2.93;;
19705;SDS011;10003;52.506;4.700;2022-09-09T15:28:37;5.50;;;3.03;;
19705;SDS011;10003;52.506;4.700;2022-09-09T15:31:07;2.30;;;1.93;;
19705;SDS011;10003;52.506;4.700;2022-09-09T15:33:36;6.40;;;2.70;;
19705;SDS011;10003;52.506;4.700;2022-09-09T15:36:14;5.53;;;2.47;;
19705;SDS011;10003;52.506;4.700;2022-09-09T15:38:43;6.73;;;2.20;;
19705;SDS011;10003;52.506;4.700;2022-09-09T15:41:16;4.00;;;2.27;;
19705;SDS011;10003;52.506;4.700;2022-09-09T15:43:45;5.13;;;2.27;;
19705;SDS011;10003;52.506;4.700;2022-09-09T15:46:24;5.43;;;2.53;;
19705;SDS011;10003;52.506;4.700;2022-09-09T15:48:54;4.70;;;2.47;;
19705;SDS011;10003;52.506;4.700;2022-09-09T15:51:23;8.30;;;3.63;;
19705;SDS011;10003;52.506;4.700;2022-09-09T15:54:10;7.63;;;2.30;;
19705;SDS011;10003;52.506;4.700;2022-09-09T15:56:40;6.43;;;1.60;;
19705;SDS011;10003;52.506;4.700;2022-09-09T15:59:09;3.37;;;2.00;;
19705;SDS011;10003;52.506;4.700;2022-09-09T16:01:38;3.23;;;1.73;;
19705;SDS011;10003;52.506;4.700;2022-09-09T16:04:07;3.57;;;2.20;;
19705;SDS011;10003;52.506;4.700;2022-09-09T16:06:37;7.60;;;4.50;;
19705;SDS011;10003;52.506;4.700;2022-09-09T16:09:06;6.20;;;2.73;;
19705;SDS011;10003;52.506;4.700;2022-09-09T16:11:36;3.27;;;2.43;;
19705;SDS011;10003;52.506;4.700;2022-09-09T16:14:06;3.37;;;2.30;;
19705;SDS011;10003;52.506;4.700;2022-09-09T16:16:35;9.27;;;3.10;;
19705;SDS011;10003;52.506;4.700;2022-09-09T16:19:05;6.13;;;2.80;;
19705;SDS011;10003;52.506;4.700;2022-09-09T16:21:36;6.00;;;2.97;;